sensor_id;sensor_type;location;lat;lon;timestamp;P1;durP1;ratioP1;P2;durP2;ratioP2
12441;SDS011;6285;48.804;9.220;2023-12-14T00:02:10;3.22;;;2.25;;
12441;SDS011;6285;48.804;9.220;2023-12-14T00:04:37;4.20;;;2.30;;
12441;SDS011;6285;48.804;9.220;2023-12-14T00:07:04;5.13;;;2.55;;
12441;SDS011;6285;48.804;9.220;2023-12-14T00:09:32;3.42;;;2.65;;
12441;SDS011;6285;48.804;9.220;2023-12-14T00:11:59;4.13;;;2.30;;
12441;SDS011;6285;48.804;9.220;2023-12-14T00:14:27;4.35;;;2.60;;
12441;SDS011;6285;48.804;9.220;2023-12-14T00:16:54;5.78;;;2.85;;
12441;SDS011;6285;48.804;9.220;2023-12-14T00:19:24;3.80;;;3.00;;
12441;SDS011;6285;48.804;9.220;2023-12-14T00:21:51;4.82;;;2.45;;
12441;SDS011;6285;48.804;9.220;2023-12-14T00:24:18;4.05;;;2.67;;
12441;SDS011;6285;48.804;9.220;2023-12-14T00:26:46;4.38;;;2.85;;
12441;SDS011;6285;48.804;9.220;2023-12-14T00:29:14;4.65;;;2.83;;
12441;SDS011;6285;48.804;9.220;2023-12-14T00:31:41;5.38;;;2.88;;
12441;SDS011;6285;48.804;9.220;2023-12-14T00:34:08;3.35;;;2.33;;
12441;SDS011;6285;48.804;9.220;2023-12-14T00:36:35;3.55;;;2.80;;
12441;SDS011;6285;48.804;9.220;2023-12-14T00:39:03;2.80;;;2.50;;
12441;SDS011;6285;48.804;9.220;2023-12-14T00:41:30;3.08;;;2.30;;
12441;SDS011;6285;48.804;9.220;2023-12-14T00:43:59;4.28;;;2.90;;
12441;SDS011;6285;48.804;9.220;2023-12-14T00:46:26;2.67;;;2.40;;
12441;SDS011;6285;48.804;9.220;2023-12-14T00:48:53;3.72;;;2.58;;
12441;SDS011;6285;48.804;9.220;2023-12-14T00:51:20;3.70;;;2.60;;
12441;SDS011;6285;48.804;9.220;2023-12-14T00:53:47;4.10;;;3.00;;
12441;SDS011;6285;48.804;9.220;2023-12-14T00:56:14;3.10;;;2.70;;
12441;SDS011;6285;48.804;9.220;2023-12-14T00:58:41;3.10;;;2.38;;
12441;SDS011;6285;48.804;9.220;2023-12-14T01:01:10;3.53;;;2.17;;
12441;SDS011;6285;48.804;9.220;2023-12-14T01:03:37;4.97;;;3.13;;
12441;SDS011;6285;48.804;9.220;2023-12-14T01:06:04;2.97;;;2.67;;
12441;SDS011;6285;48.804;9.220;2023-12-14T01:08:32;3.92;;;2.78;;
12441;SDS011;6285;48.804;9.220;2023-12-14T01:10:59;5.97;;;2.40;;
12441;SDS011;6285;48.804;9.220;2023-12-14T01:13:26;3.05;;;2.60;;
12441;SDS011;6285;48.804;9.220;2023-12-14T01:15:53;3.42;;;2.63;;
12441;SDS011;6285;48.804;9.220;2023-12-14T01:18:22;3.60;;;2.85;;
12441;SDS011;6285;48.804;9.220;2023-12-14T01:20:49;4.78;;;2.92;;
12441;SDS011;6285;48.804;9.220;2023-12-14T01:23:17;5.35;;;3.33;;
12441;SDS011;6285;48.804;9.220;2023-12-14T01:25:44;4.18;;;3.10;;
12441;SDS011;6285;48.804;9.220;2023-12-14T01:28:11;4.32;;;3.10;;
12441;SDS011;6285;48.804;9.220;2023-12-14T01:30:39;4.15;;;3.13;;
12441;SDS011;6285;48.804;9.220;2023-12-14T01:33:06;6.35;;;3.30;;
12441;SDS011;6285;48.804;9.220;2023-12-14T01:35:35;5.05;;;3.40;;
12441;SDS011;6285;48.804;9.220;2023-12-14T01:38:03;3.80;;;3.50;;
12441;SDS011;6285;48.804;9.220;2023-12-14T01:40:30;6.25;;;3.70;;
12441;SDS011;6285;48.804;9.220;2023-12-14T01:43:05;5.78;;;3.88;;
12441;SDS011;6285;48.804;9.220;2023-12-14T01:45:33;4.85;;;3.67;;
12441;SDS011;6285;48.804;9.220;2023-12-14T01:48:00;5.13;;;4.15;;
12441;SDS011;6285;48.804;9.220;2023-12-14T01:50:27;6.68;;;4.07;;
12441;SDS011;6285;48.804;9.220;2023-12-14T01:52:56;6.57;;;4.10;;
12441;SDS011;6285;48.804;9.220;2023-12-14T01:55:24;4.78;;;3.35;;
12441;SDS011;6285;48.804;9.220;2023-12-14T01:57:52;4.05;;;3.42;;
12441;SDS011;6285;48.804;9.220;2023-12-14T02:00:21;5.93;;;3.50;;
12441;SDS011;6285;48.804;9.220;2023-12-14T02:02:50;3.92;;;2.88;;
12441;SDS011;6285;48.804;9.220;2023-12-14T02:05:18;3.03;;;2.58;;
12441;SDS011;6285;48.804;9.220;2023-12-14T02:07:45;3.33;;;2.45;;
12441;SDS011;6285;48.804;9.220;2023-12-14T02:10:13;2.97;;;2.33;;
12441;SDS011;6285;48.804;9.220;2023-12-14T02:12:40;3.35;;;2.50;;
12441;SDS011;6285;48.804;9.220;2023-12-14T02:15:08;3.50;;;2.30;;
12441;SDS011;6285;48.804;9.220;2023-12-14T02:17:35;3.10;;;2.10;;
12441;SDS011;6285;48.804;9.220;2023-12-14T02:20:02;3.45;;;2.60;;
12441;SDS011;6285;48.804;9.220;2023-12-14T02:22:33;3.05;;;2.20;;
12441;SDS011;6285;48.804;9.220;2023-12-14T02:25:01;3.72;;;2.13;;
12441;SDS011;6285;48.804;9.220;2023-12-14T02:27:29;4.03;;;2.08;;
12441;SDS011;6285;48.804;9.220;2023-12-14T02:29:56;4.78;;;2.85;;
12441;SDS011;6285;48.804;9.220;2023-12-14T02:32:23;3.30;;;1.90;;
12441;SDS011;6285;48.804;9.220;2023-12-14T02:34:50;2.35;;;1.83;;
12441;SDS011;6285;48.804;9.220;2023-12-14T02:37:17;2.45;;;2.00;;
12441;SDS011;6285;48.804;9.220;2023-12-14T02:39:46;1.80;;;1.70;;
12441;SDS011;6285;48.804;9.220;2023-12-14T02:42:13;1.85;;;1.65;;
12441;SDS011;6285;48.804;9.220;2023-12-14T02:44:40;2.50;;;2.15;;
12441;SDS011;6285;48.804;9.220;2023-12-14T02:47:07;4.28;;;2.13;;
12441;SDS011;6285;48.804;9.220;2023-12-14T02:49:34;2.17;;;1.98;;
12441;SDS011;6285;48.804;9.220;2023-12-14T02:52:01;3.00;;;1.95;;
12441;SDS011;6285;48.804;9.220;2023-12-14T02:54:27;3.67;;;1.98;;
12441;SDS011;6285;48.804;9.220;2023-12-14T02:56:56;2.08;;;1.88;;
12441;SDS011;6285;48.804;9.220;2023-12-14T02:59:23;3.03;;;1.70;;
12441;SDS011;6285;48.804;9.220;2023-12-14T03:01:50;3.58;;;2.08;;
12441;SDS011;6285;48.804;9.220;2023-12-14T03:04:17;2.88;;;1.80;;
12441;SDS011;6285;48.804;9.220;2023-12-14T03:06:44;2.15;;;1.85;;
12441;SDS011;6285;48.804;9.220;2023-12-14T03:09:11;2.28;;;2.00;;
12441;SDS011;6285;48.804;9.220;2023-12-14T03:11:38;2.58;;;1.58;;
12441;SDS011;6285;48.804;9.220;2023-12-14T03:14:07;2.45;;;1.70;;
12441;SDS011;6285;48.804;9.220;2023-12-14T03:16:34;3.25;;;1.90;;
12441;SDS011;6285;48.804;9.220;2023-12-14T03:19:01;2.05;;;1.85;;
12441;SDS011;6285;48.804;9.220;2023-12-14T03:21:28;2.72;;;1.90;;
12441;SDS011;6285;48.804;9.220;2023-12-14T03:23:56;2.70;;;1.90;;
12441;SDS011;6285;48.804;9.220;2023-12-14T03:26:23;2.08;;;1.65;;
12441;SDS011;6285;48.804;9.220;2023-12-14T03:28:50;3.05;;;2.03;;
12441;SDS011;6285;48.804;9.220;2023-12-14T03:31:18;4.57;;;1.65;;
12441;SDS011;6285;48.804;9.220;2023-12-14T03:33:45;2.63;;;2.05;;
12441;SDS011;6285;48.804;9.220;2023-12-14T03:36:12;2.90;;;1.92;;
12441;SDS011;6285;48.804;9.220;2023-12-14T03:38:39;3.97;;;2.00;;
12441;SDS011;6285;48.804;9.220;2023-12-14T03:41:06;3.90;;;1.88;;
12441;SDS011;6285;48.804;9.220;2023-12-14T03:43:34;2.50;;;2.30;;
12441;SDS011;6285;48.804;9.220;2023-12-14T03:46:01;2.30;;;2.10;;
12441;SDS011;6285;48.804;9.220;2023-12-14T03:48:29;2.08;;;1.85;;
12441;SDS011;6285;48.804;9.220;2023-12-14T03:50:56;2.55;;;1.92;;
12441;SDS011;6285;48.804;9.220;2023-12-14T03:53:23;3.30;;;1.65;;
12441;SDS011;6285;48.804;9.220;2023-12-14T03:55:50;1.83;;;1.70;;
12441;SDS011;6285;48.804;9.220;2023-12-14T03:58:17;3.20;;;1.70;;
12441;SDS011;6285;48.804;9.220;2023-12-14T04:00:44;2.60;;;1.92;;
12441;SDS011;6285;48.804;9.220;2023-12-14T04:03:12;2.08;;;1.80;;
12441;SDS011;6285;48.804;9.220;2023-12-14T04:05:40;4.70;;;2.00;;
12441;SDS011;6285;48.804;9.220;2023-12-14T04:08:09;3.17;;;2.25;;
12441;SDS011;6285;48.804;9.220;2023-12-14T04:10:36;3.00;;;2.25;;
12441;SDS011;6285;48.804;9.220;2023-12-14T04:13:03;2.83;;;2.20;;
12441;SDS011;6285;48.804;9.220;2023-12-14T04:15:30;4.10;;;2.30;;
12441;SDS011;6285;48.804;9.220;2023-12-14T04:17:57;4.63;;;2.47;;
12441;SDS011;6285;48.804;9.220;2023-12-14T04:20:24;3.00;;;2.47;;
12441;SDS011;6285;48.804;9.220;2023-12-14T04:22:53;3.92;;;2.50;;
12441;SDS011;6285;48.804;9.220;2023-12-14T04:25:20;3.53;;;2.60;;
12441;SDS011;6285;48.804;9.220;2023-12-14T04:27:47;2.70;;;2.25;;
12441;SDS011;6285;48.804;9.220;2023-12-14T04:30:14;3.28;;;2.10;;
12441;SDS011;6285;48.804;9.220;2023-12-14T04:32:41;4.80;;;2.90;;
12441;SDS011;6285;48.804;9.220;2023-12-14T04:35:08;3.25;;;2.80;;
12441;SDS011;6285;48.804;9.220;2023-12-14T04:37:34;4.07;;;2.70;;
12441;SDS011;6285;48.804;9.220;2023-12-14T04:40:03;4.25;;;3.20;;
12441;SDS011;6285;48.804;9.220;2023-12-14T04:42:30;4.18;;;3.10;;
12441;SDS011;6285;48.804;9.220;2023-12-14T04:44:57;4.32;;;2.80;;
12441;SDS011;6285;48.804;9.220;2023-12-14T04:47:24;3.55;;;2.65;;
12441;SDS011;6285;48.804;9.220;2023-12-14T04:49:51;4.53;;;2.50;;
12441;SDS011;6285;48.804;9.220;2023-12-14T04:52:18;2.83;;;2.60;;
12441;SDS011;6285;48.804;9.220;2023-12-14T04:54:45;3.42;;;2.65;;
12441;SDS011;6285;48.804;9.220;2023-12-14T04:57:14;3.47;;;2.60;;
12441;SDS011;6285;48.804;9.220;2023-12-14T04:59:41;2.90;;;2.55;;
12441;SDS011;6285;48.804;9.220;2023-12-14T05:02:08;2.90;;;2.60;;
12441;SDS011;6285;48.804;9.220;2023-12-14T05:04:35;5.38;;;3.03;;
12441;SDS011;6285;48.804;9.220;2023-12-14T05:07:02;2.67;;;2.30;;
12441;SDS011;6285;48.804;9.220;2023-12-14T05:09:29;4.57;;;2.70;;
12441;SDS011;6285;48.804;9.220;2023-12-14T05:11:56;2.85;;;2.20;;
12441;SDS011;6285;48.804;9.220;2023-12-14T05:14:25;4.70;;;2.60;;
12441;SDS011;6285;48.804;9.220;2023-12-14T05:16:53;4.32;;;2.53;;
12441;SDS011;6285;48.804;9.220;2023-12-14T05:19:21;5.85;;;2.63;;
12441;SDS011;6285;48.804;9.220;2023-12-14T05:21:48;3.55;;;2.53;;
12441;SDS011;6285;48.804;9.220;2023-12-14T05:24:15;2.70;;;2.45;;
12441;SDS011;6285;48.804;9.220;2023-12-14T05:26:42;5.53;;;3.00;;
12441;SDS011;6285;48.804;9.220;2023-12-14T05:29:27;4.30;;;2.80;;
12441;SDS011;6285;48.804;9.220;2023-12-14T05:31:56;4.93;;;3.60;;
12441;SDS011;6285;48.804;9.220;2023-12-14T05:34:23;7.80;;;3.53;;
12441;SDS011;6285;48.804;9.220;2023-12-14T05:36:50;8.18;;;4.72;;
12441;SDS011;6285;48.804;9.220;2023-12-14T05:39:17;11.40;;;5.07;;
12441;SDS011;6285;48.804;9.220;2023-12-14T05:41:45;13.93;;;4.97;;
12441;SDS011;6285;48.804;9.220;2023-12-14T05:44:12;12.27;;;5.03;;
12441;SDS011;6285;48.804;9.220;2023-12-14T05:46:40;8.38;;;4.75;;
12441;SDS011;6285;48.804;9.220;2023-12-14T05:49:08;11.27;;;4.20;;
12441;SDS011;6285;48.804;9.220;2023-12-14T05:51:35;7.68;;;4.25;;
12441;SDS011;6285;48.804;9.220;2023-12-14T05:54:03;9.40;;;4.30;;
12441;SDS011;6285;48.804;9.220;2023-12-14T05:56:30;10.27;;;5.53;;
12441;SDS011;6285;48.804;9.220;2023-12-14T05:58:57;8.23;;;4.28;;
12441;SDS011;6285;48.804;9.220;2023-12-14T06:01:29;7.03;;;4.07;;
12441;SDS011;6285;48.804;9.220;2023-12-14T06:04:04;4.00;;;2.40;;
12441;SDS011;6285;48.804;9.220;2023-12-14T06:06:31;3.63;;;2.80;;
12441;SDS011;6285;48.804;9.220;2023-12-14T06:08:58;4.30;;;2.83;;
12441;SDS011;6285;48.804;9.220;2023-12-14T06:11:26;6.05;;;2.90;;
12441;SDS011;6285;48.804;9.220;2023-12-14T06:13:53;6.95;;;3.65;;
12441;SDS011;6285;48.804;9.220;2023-12-14T06:16:20;5.95;;;4.43;;
12441;SDS011;6285;48.804;9.220;2023-12-14T06:18:47;4.25;;;3.30;;
12441;SDS011;6285;48.804;9.220;2023-12-14T06:21:16;3.40;;;2.78;;
12441;SDS011;6285;48.804;9.220;2023-12-14T06:23:43;4.93;;;3.72;;
12441;SDS011;6285;48.804;9.220;2023-12-14T06:26:11;4.57;;;3.33;;
12441;SDS011;6285;48.804;9.220;2023-12-14T06:28:38;4.93;;;4.15;;
12441;SDS011;6285;48.804;9.220;2023-12-14T06:31:05;3.30;;;3.00;;
12441;SDS011;6285;48.804;9.220;2023-12-14T06:33:32;5.55;;;2.90;;
12441;SDS011;6285;48.804;9.220;2023-12-14T06:36:02;6.43;;;3.00;;
12441;SDS011;6285;48.804;9.220;2023-12-14T06:38:31;3.53;;;2.60;;
12441;SDS011;6285;48.804;9.220;2023-12-14T06:40:58;6.55;;;3.42;;
12441;SDS011;6285;48.804;9.220;2023-12-14T06:43:27;3.20;;;2.90;;
12441;SDS011;6285;48.804;9.220;2023-12-14T06:45:54;3.95;;;2.92;;
12441;SDS011;6285;48.804;9.220;2023-12-14T06:48:21;2.60;;;2.40;;
12441;SDS011;6285;48.804;9.220;2023-12-14T06:50:48;4.63;;;3.28;;
12441;SDS011;6285;48.804;9.220;2023-12-14T06:53:15;4.50;;;2.88;;
12441;SDS011;6285;48.804;9.220;2023-12-14T06:55:44;6.13;;;2.90;;
12441;SDS011;6285;48.804;9.220;2023-12-14T06:58:11;3.25;;;2.95;;
12441;SDS011;6285;48.804;9.220;2023-12-14T07:00:38;4.93;;;3.72;;
12441;SDS011;6285;48.804;9.220;2023-12-14T07:03:05;4.25;;;3.00;;
12441;SDS011;6285;48.804;9.220;2023-12-14T07:05:33;3.90;;;2.97;;
12441;SDS011;6285;48.804;9.220;2023-12-14T07:08:03;4.63;;;2.85;;
12441;SDS011;6285;48.804;9.220;2023-12-14T07:10:33;3.33;;;3.03;;
12441;SDS011;6285;48.804;9.220;2023-12-14T07:13:08;4.68;;;3.20;;
12441;SDS011;6285;48.804;9.220;2023-12-14T07:15:35;4.40;;;3.00;;
12441;SDS011;6285;48.804;9.220;2023-12-14T07:18:08;4.45;;;3.45;;
12441;SDS011;6285;48.804;9.220;2023-12-14T07:20:35;4.63;;;3.67;;
12441;SDS011;6285;48.804;9.220;2023-12-14T07:23:03;5.63;;;3.78;;
12441;SDS011;6285;48.804;9.220;2023-12-14T07:25:30;4.70;;;3.88;;
12441;SDS011;6285;48.804;9.220;2023-12-14T07:27:57;5.03;;;4.03;;
12441;SDS011;6285;48.804;9.220;2023-12-14T07:30:25;5.03;;;3.72;;
12441;SDS011;6285;48.804;9.220;2023-12-14T07:32:52;6.65;;;4.32;;
12441;SDS011;6285;48.804;9.220;2023-12-14T07:35:20;7.20;;;4.22;;
12441;SDS011;6285;48.804;9.220;2023-12-14T07:37:48;5.60;;;4.50;;
12441;SDS011;6285;48.804;9.220;2023-12-14T07:40:15;6.20;;;4.57;;
12441;SDS011;6285;48.804;9.220;2023-12-14T07:42:42;6.97;;;4.63;;
12441;SDS011;6285;48.804;9.220;2023-12-14T07:45:09;6.95;;;4.43;;
12441;SDS011;6285;48.804;9.220;2023-12-14T07:47:44;7.22;;;4.32;;
12441;SDS011;6285;48.804;9.220;2023-12-14T07:50:12;9.65;;;4.93;;
12441;SDS011;6285;48.804;9.220;2023-12-14T07:52:39;6.20;;;4.63;;
12441;SDS011;6285;48.804;9.220;2023-12-14T07:55:07;5.63;;;4.13;;
12441;SDS011;6285;48.804;9.220;2023-12-14T07:57:34;6.35;;;4.22;;
12441;SDS011;6285;48.804;9.220;2023-12-14T08:00:01;6.85;;;4.65;;
12441;SDS011;6285;48.804;9.220;2023-12-14T08:02:29;6.18;;;4.68;;
12441;SDS011;6285;48.804;9.220;2023-12-14T08:05:00;5.78;;;5.13;;
12441;SDS011;6285;48.804;9.220;2023-12-14T08:07:30;12.70;;;10.45;;
12441;SDS011;6285;48.804;9.220;2023-12-14T08:09:59;5.45;;;4.75;;
12441;SDS011;6285;48.804;9.220;2023-12-14T08:12:27;6.20;;;4.50;;
12441;SDS011;6285;48.804;9.220;2023-12-14T08:14:54;6.40;;;4.72;;
12441;SDS011;6285;48.804;9.220;2023-12-14T08:17:21;6.38;;;4.75;;
12441;SDS011;6285;48.804;9.220;2023-12-14T08:19:48;7.65;;;4.85;;
12441;SDS011;6285;48.804;9.220;2023-12-14T08:22:16;5.82;;;4.40;;
12441;SDS011;6285;48.804;9.220;2023-12-14T08:24:43;7.18;;;5.82;;
12441;SDS011;6285;48.804;9.220;2023-12-14T08:27:11;7.57;;;5.68;;
12441;SDS011;6285;48.804;9.220;2023-12-14T08:29:38;6.25;;;5.47;;
12441;SDS011;6285;48.804;9.220;2023-12-14T08:32:05;7.30;;;6.03;;
12441;SDS011;6285;48.804;9.220;2023-12-14T08:34:32;7.25;;;5.28;;
12441;SDS011;6285;48.804;9.220;2023-12-14T08:37:00;6.18;;;5.57;;
12441;SDS011;6285;48.804;9.220;2023-12-14T08:39:29;10.80;;;6.90;;
12441;SDS011;6285;48.804;9.220;2023-12-14T08:41:56;7.68;;;5.40;;
12441;SDS011;6285;48.804;9.220;2023-12-14T08:44:23;6.38;;;5.55;;
12441;SDS011;6285;48.804;9.220;2023-12-14T08:46:50;5.80;;;5.03;;
12441;SDS011;6285;48.804;9.220;2023-12-14T08:49:17;6.68;;;6.00;;
12441;SDS011;6285;48.804;9.220;2023-12-14T08:51:44;8.63;;;6.75;;
12441;SDS011;6285;48.804;9.220;2023-12-14T08:54:11;7.03;;;6.10;;
12441;SDS011;6285;48.804;9.220;2023-12-14T08:56:39;7.32;;;6.63;;
12441;SDS011;6285;48.804;9.220;2023-12-14T08:59:06;7.88;;;6.43;;
12441;SDS011;6285;48.804;9.220;2023-12-14T09:01:34;7.45;;;6.55;;
12441;SDS011;6285;48.804;9.220;2023-12-14T09:04:03;7.63;;;6.65;;
12441;SDS011;6285;48.804;9.220;2023-12-14T09:06:30;9.05;;;6.72;;
12441;SDS011;6285;48.804;9.220;2023-12-14T09:09:00;8.63;;;6.93;;
12441;SDS011;6285;48.804;9.220;2023-12-14T09:11:31;10.20;;;7.18;;
12441;SDS011;6285;48.804;9.220;2023-12-14T09:14:00;7.82;;;6.90;;
12441;SDS011;6285;48.804;9.220;2023-12-14T09:16:30;9.10;;;6.68;;
12441;SDS011;6285;48.804;9.220;2023-12-14T09:18:57;7.30;;;6.18;;
12441;SDS011;6285;48.804;9.220;2023-12-14T09:21:24;7.30;;;6.60;;
12441;SDS011;6285;48.804;9.220;2023-12-14T09:23:51;8.02;;;7.22;;
12441;SDS011;6285;48.804;9.220;2023-12-14T09:26:21;9.15;;;8.07;;
12441;SDS011;6285;48.804;9.220;2023-12-14T09:28:48;8.38;;;7.25;;
12441;SDS011;6285;48.804;9.220;2023-12-14T09:31:17;8.77;;;7.90;;
12441;SDS011;6285;48.804;9.220;2023-12-14T09:33:44;10.85;;;7.38;;
12441;SDS011;6285;48.804;9.220;2023-12-14T09:36:12;8.30;;;7.50;;
12441;SDS011;6285;48.804;9.220;2023-12-14T09:38:39;8.13;;;6.65;;
12441;SDS011;6285;48.804;9.220;2023-12-14T09:41:06;8.20;;;7.40;;
12441;SDS011;6285;48.804;9.220;2023-12-14T09:43:33;7.65;;;6.68;;
12441;SDS011;6285;48.804;9.220;2023-12-14T09:46:00;7.82;;;6.57;;
12441;SDS011;6285;48.804;9.220;2023-12-14T09:48:29;7.72;;;6.93;;
12441;SDS011;6285;48.804;9.220;2023-12-14T09:50:58;8.65;;;6.70;;
12441;SDS011;6285;48.804;9.220;2023-12-14T09:53:25;8.52;;;7.47;;
12441;SDS011;6285;48.804;9.220;2023-12-14T09:55:52;8.05;;;7.00;;
12441;SDS011;6285;48.804;9.220;2023-12-14T09:58:19;10.38;;;7.95;;
12441;SDS011;6285;48.804;9.220;2023-12-14T10:00:46;10.98;;;8.43;;
12441;SDS011;6285;48.804;9.220;2023-12-14T10:03:22;10.07;;;7.05;;
12441;SDS011;6285;48.804;9.220;2023-12-14T10:05:52;8.50;;;7.65;;
12441;SDS011;6285;48.804;9.220;2023-12-14T10:08:19;9.70;;;7.18;;
12441;SDS011;6285;48.804;9.220;2023-12-14T10:10:51;10.27;;;7.18;;
12441;SDS011;6285;48.804;9.220;2023-12-14T10:13:21;11.30;;;7.53;;
12441;SDS011;6285;48.804;9.220;2023-12-14T10:16:03;9.60;;;7.32;;
12441;SDS011;6285;48.804;9.220;2023-12-14T10:18:31;10.65;;;7.72;;
12441;SDS011;6285;48.804;9.220;2023-12-14T10:21:01;9.48;;;7.65;;
12441;SDS011;6285;48.804;9.220;2023-12-14T10:23:28;9.05;;;7.65;;
12441;SDS011;6285;48.804;9.220;2023-12-14T10:25:56;9.77;;;7.05;;
12441;SDS011;6285;48.804;9.220;2023-12-14T10:28:23;9.98;;;7.80;;
12441;SDS011;6285;48.804;9.220;2023-12-14T10:30:50;10.75;;;8.32;;
12441;SDS011;6285;48.804;9.220;2023-12-14T10:33:17;10.00;;;8.38;;
12441;SDS011;6285;48.804;9.220;2023-12-14T10:35:45;10.52;;;8.25;;
12441;SDS011;6285;48.804;9.220;2023-12-14T10:38:13;11.05;;;8.95;;
12441;SDS011;6285;48.804;9.220;2023-12-14T10:40:42;9.70;;;8.32;;
12441;SDS011;6285;48.804;9.220;2023-12-14T10:43:11;10.73;;;7.88;;
12441;SDS011;6285;48.804;9.220;2023-12-14T10:45:38;11.35;;;8.45;;
12441;SDS011;6285;48.804;9.220;2023-12-14T10:48:05;9.27;;;8.05;;
12441;SDS011;6285;48.804;9.220;2023-12-14T10:50:34;8.45;;;6.78;;
12441;SDS011;6285;48.804;9.220;2023-12-14T10:53:05;8.57;;;5.47;;
12441;SDS011;6285;48.804;9.220;2023-12-14T10:55:37;8.15;;;6.28;;
12441;SDS011;6285;48.804;9.220;2023-12-14T10:58:10;8.23;;;6.35;;
12441;SDS011;6285;48.804;9.220;2023-12-14T11:00:39;10.18;;;6.28;;
12441;SDS011;6285;48.804;9.220;2023-12-14T11:03:06;9.18;;;6.82;;
12441;SDS011;6285;48.804;9.220;2023-12-14T11:05:45;7.38;;;5.95;;
12441;SDS011;6285;48.804;9.220;2023-12-14T11:08:14;8.75;;;6.80;;
12441;SDS011;6285;48.804;9.220;2023-12-14T11:10:52;8.13;;;6.47;;
12441;SDS011;6285;48.804;9.220;2023-12-14T11:13:20;11.25;;;6.97;;
12441;SDS011;6285;48.804;9.220;2023-12-14T11:15:48;9.00;;;6.00;;
12441;SDS011;6285;48.804;9.220;2023-12-14T11:18:25;8.60;;;5.07;;
12441;SDS011;6285;48.804;9.220;2023-12-14T11:20:57;6.22;;;4.57;;
12441;SDS011;6285;48.804;9.220;2023-12-14T11:23:35;6.88;;;5.10;;
12441;SDS011;6285;48.804;9.220;2023-12-14T11:26:05;6.03;;;4.30;;
12441;SDS011;6285;48.804;9.220;2023-12-14T11:28:44;7.35;;;4.40;;
12441;SDS011;6285;48.804;9.220;2023-12-14T11:31:11;6.75;;;4.53;;
12441;SDS011;6285;48.804;9.220;2023-12-14T11:33:42;5.38;;;3.88;;
12441;SDS011;6285;48.804;9.220;2023-12-14T11:36:13;7.40;;;4.43;;
12441;SDS011;6285;48.804;9.220;2023-12-14T11:38:43;7.00;;;4.32;;
12441;SDS011;6285;48.804;9.220;2023-12-14T11:41:14;8.98;;;4.68;;
12441;SDS011;6285;48.804;9.220;2023-12-14T11:43:45;11.93;;;8.13;;
12441;SDS011;6285;48.804;9.220;2023-12-14T11:46:12;6.65;;;4.85;;
12441;SDS011;6285;48.804;9.220;2023-12-14T11:48:40;7.47;;;4.93;;
12441;SDS011;6285;48.804;9.220;2023-12-14T11:51:09;8.63;;;4.85;;
12441;SDS011;6285;48.804;9.220;2023-12-14T11:53:38;11.63;;;5.72;;
12441;SDS011;6285;48.804;9.220;2023-12-14T11:56:06;10.18;;;5.20;;
12441;SDS011;6285;48.804;9.220;2023-12-14T11:58:34;8.02;;;5.63;;
12441;SDS011;6285;48.804;9.220;2023-12-14T12:01:10;9.07;;;5.97;;
12441;SDS011;6285;48.804;9.220;2023-12-14T12:03:37;5.95;;;5.35;;
12441;SDS011;6285;48.804;9.220;2023-12-14T12:06:04;7.57;;;4.75;;
12441;SDS011;6285;48.804;9.220;2023-12-14T12:08:31;4.15;;;3.72;;
12441;SDS011;6285;48.804;9.220;2023-12-14T12:11:07;4.10;;;3.00;;
12441;SDS011;6285;48.804;9.220;2023-12-14T12:13:35;6.57;;;3.60;;
12441;SDS011;6285;48.804;9.220;2023-12-14T12:16:02;6.10;;;3.65;;
12441;SDS011;6285;48.804;9.220;2023-12-14T12:18:29;5.03;;;3.53;;
12441;SDS011;6285;48.804;9.220;2023-12-14T12:20:56;6.85;;;3.42;;
12441;SDS011;6285;48.804;9.220;2023-12-14T12:23:28;2.75;;;2.17;;
12441;SDS011;6285;48.804;9.220;2023-12-14T12:25:55;4.18;;;2.20;;
12441;SDS011;6285;48.804;9.220;2023-12-14T12:28:23;3.15;;;2.30;;
12441;SDS011;6285;48.804;9.220;2023-12-14T12:30:51;3.53;;;2.47;;
12441;SDS011;6285;48.804;9.220;2023-12-14T12:33:18;4.35;;;2.97;;
12441;SDS011;6285;48.804;9.220;2023-12-14T12:36:16;3.28;;;2.80;;
12441;SDS011;6285;48.804;9.220;2023-12-14T12:38:44;4.15;;;2.40;;
12441;SDS011;6285;48.804;9.220;2023-12-14T12:41:14;4.93;;;2.83;;
12441;SDS011;6285;48.804;9.220;2023-12-14T12:43:41;3.83;;;2.17;;
12441;SDS011;6285;48.804;9.220;2023-12-14T12:46:11;3.00;;;2.60;;
12441;SDS011;6285;48.804;9.220;2023-12-14T12:48:43;3.67;;;2.38;;
12441;SDS011;6285;48.804;9.220;2023-12-14T12:51:11;3.13;;;2.80;;
12441;SDS011;6285;48.804;9.220;2023-12-14T12:53:41;2.72;;;2.30;;
12441;SDS011;6285;48.804;9.220;2023-12-14T12:56:11;3.78;;;2.45;;
12441;SDS011;6285;48.804;9.220;2023-12-14T12:58:41;4.88;;;2.40;;
12441;SDS011;6285;48.804;9.220;2023-12-14T13:01:09;4.32;;;2.63;;
12441;SDS011;6285;48.804;9.220;2023-12-14T13:03:37;6.88;;;2.85;;
12441;SDS011;6285;48.804;9.220;2023-12-14T13:06:05;3.83;;;2.63;;
12441;SDS011;6285;48.804;9.220;2023-12-14T13:08:34;2.65;;;2.10;;
12441;SDS011;6285;48.804;9.220;2023-12-14T13:11:01;2.85;;;2.38;;
12441;SDS011;6285;48.804;9.220;2023-12-14T13:13:28;4.70;;;3.15;;
12441;SDS011;6285;48.804;9.220;2023-12-14T13:15:56;5.75;;;3.20;;
12441;SDS011;6285;48.804;9.220;2023-12-14T13:18:23;5.90;;;3.85;;
12441;SDS011;6285;48.804;9.220;2023-12-14T13:20:52;4.32;;;3.75;;
12441;SDS011;6285;48.804;9.220;2023-12-14T13:23:19;7.32;;;4.20;;
12441;SDS011;6285;48.804;9.220;2023-12-14T13:25:46;5.65;;;4.30;;
12441;SDS011;6285;48.804;9.220;2023-12-14T13:28:13;5.75;;;4.13;;
12441;SDS011;6285;48.804;9.220;2023-12-14T13:30:41;5.35;;;3.53;;
12441;SDS011;6285;48.804;9.220;2023-12-14T13:33:08;6.47;;;4.03;;
12441;SDS011;6285;48.804;9.220;2023-12-14T13:35:40;6.05;;;4.50;;
12441;SDS011;6285;48.804;9.220;2023-12-14T13:38:11;8.25;;;4.85;;
12441;SDS011;6285;48.804;9.220;2023-12-14T13:40:45;6.43;;;4.57;;
12441;SDS011;6285;48.804;9.220;2023-12-14T13:43:20;5.18;;;4.05;;
12441;SDS011;6285;48.804;9.220;2023-12-14T13:45:50;9.48;;;5.05;;
12441;SDS011;6285;48.804;9.220;2023-12-14T13:48:30;6.72;;;3.47;;
12441;SDS011;6285;48.804;9.220;2023-12-14T13:50:58;3.92;;;3.13;;
12441;SDS011;6285;48.804;9.220;2023-12-14T13:53:27;5.80;;;3.10;;
12441;SDS011;6285;48.804;9.220;2023-12-14T13:56:00;4.30;;;3.38;;
12441;SDS011;6285;48.804;9.220;2023-12-14T13:58:29;13.50;;;8.25;;
12441;SDS011;6285;48.804;9.220;2023-12-14T14:00:59;9.73;;;6.38;;
12441;SDS011;6285;48.804;9.220;2023-12-14T14:03:26;7.20;;;4.70;;
12441;SDS011;6285;48.804;9.220;2023-12-14T14:05:54;6.28;;;4.00;;
12441;SDS011;6285;48.804;9.220;2023-12-14T14:08:21;4.13;;;3.65;;
12441;SDS011;6285;48.804;9.220;2023-12-14T14:10:50;5.57;;;4.07;;
12441;SDS011;6285;48.804;9.220;2023-12-14T14:13:18;4.82;;;3.80;;
12441;SDS011;6285;48.804;9.220;2023-12-14T14:15:46;5.35;;;4.40;;
12441;SDS011;6285;48.804;9.220;2023-12-14T14:18:13;7.07;;;4.50;;
12441;SDS011;6285;48.804;9.220;2023-12-14T14:20:40;6.18;;;4.78;;
12441;SDS011;6285;48.804;9.220;2023-12-14T14:23:08;20.98;;;13.35;;
12441;SDS011;6285;48.804;9.220;2023-12-14T14:25:35;46.05;;;24.50;;
12441;SDS011;6285;48.804;9.220;2023-12-14T14:28:03;11.60;;;7.75;;
12441;SDS011;6285;48.804;9.220;2023-12-14T14:30:30;7.30;;;6.18;;
12441;SDS011;6285;48.804;9.220;2023-12-14T14:32:57;9.02;;;6.15;;
12441;SDS011;6285;48.804;9.220;2023-12-14T14:35:24;8.73;;;6.45;;
12441;SDS011;6285;48.804;9.220;2023-12-14T14:37:52;9.50;;;6.50;;
12441;SDS011;6285;48.804;9.220;2023-12-14T14:40:19;9.45;;;6.85;;
12441;SDS011;6285;48.804;9.220;2023-12-14T14:42:47;8.32;;;6.60;;
12441;SDS011;6285;48.804;9.220;2023-12-14T14:45:20;9.40;;;6.93;;
12441;SDS011;6285;48.804;9.220;2023-12-14T14:47:50;7.75;;;6.85;;
12441;SDS011;6285;48.804;9.220;2023-12-14T14:50:19;8.95;;;7.35;;
12441;SDS011;6285;48.804;9.220;2023-12-14T14:52:52;9.85;;;7.15;;
12441;SDS011;6285;48.804;9.220;2023-12-14T14:55:28;9.07;;;7.38;;
12441;SDS011;6285;48.804;9.220;2023-12-14T14:57:58;8.40;;;6.95;;
12441;SDS011;6285;48.804;9.220;2023-12-14T15:00:26;11.45;;;7.88;;
12441;SDS011;6285;48.804;9.220;2023-12-14T15:02:53;12.57;;;9.45;;
12441;SDS011;6285;48.804;9.220;2023-12-14T15:05:21;9.95;;;8.70;;
12441;SDS011;6285;48.804;9.220;2023-12-14T15:07:48;11.73;;;8.80;;